sensor_id;sensor_type;location;lat;lon;timestamp;temperature;humidity
27567;DHT22;15006;48.584;9.186;2022-07-23T00:01:19;18.60;70.90
27567;DHT22;15006;48.584;9.186;2022-07-23T00:03:45;18.60;71.10
27567;DHT22;15006;48.584;9.186;2022-07-23T00:06:11;18.60;71.60
27567;DHT22;15006;48.584;9.186;2022-07-23T00:08:37;18.60;71.90
27567;DHT22;15006;48.584;9.186;2022-07-23T00:11:03;18.60;73.10
27567;DHT22;15006;48.584;9.186;2022-07-23T00:13:29;18.60;73.30
27567;DHT22;15006;48.584;9.186;2022-07-23T00:15:55;18.60;73.80
27567;DHT22;15006;48.584;9.186;2022-07-23T00:18:21;18.60;74.20
27567;DHT22;15006;48.584;9.186;2022-07-23T00:20:47;18.60;74.50
27567;DHT22;15006;48.584;9.186;2022-07-23T00:23:13;18.60;74.80
27567;DHT22;15006;48.584;9.186;2022-07-23T00:25:39;18.60;75.10
27567;DHT22;15006;48.584;9.186;2022-07-23T00:28:05;18.60;75.30
27567;DHT22;15006;48.584;9.186;2022-07-23T00:30:32;18.70;76.10
27567;DHT22;15006;48.584;9.186;2022-07-23T00:33:04;18.70;76.50
27567;DHT22;15006;48.584;9.186;2022-07-23T00:35:34;18.70;77.00
27567;DHT22;15006;48.584;9.186;2022-07-23T00:38:04;18.70;77.00
27567;DHT22;15006;48.584;9.186;2022-07-23T00:40:31;18.70;76.80
27567;DHT22;15006;48.584;9.186;2022-07-23T00:42:57;18.70;76.30
27567;DHT22;15006;48.584;9.186;2022-07-23T00:45:24;18.60;76.40
27567;DHT22;15006;48.584;9.186;2022-07-23T00:47:51;18.60;75.90
27567;DHT22;15006;48.584;9.186;2022-07-23T00:50:17;18.60;75.70
27567;DHT22;15006;48.584;9.186;2022-07-23T00:52:43;18.60;75.80
27567;DHT22;15006;48.584;9.186;2022-07-23T00:55:11;18.60;75.00
27567;DHT22;15006;48.584;9.186;2022-07-23T00:57:39;18.60;74.40
27567;DHT22;15006;48.584;9.186;2022-07-23T01:00:07;18.60;73.80
27567;DHT22;15006;48.584;9.186;2022-07-23T01:02:36;18.50;72.90
27567;DHT22;15006;48.584;9.186;2022-07-23T01:05:06;18.50;73.40
27567;DHT22;15006;48.584;9.186;2022-07-23T01:07:34;18.50;73.00
27567;DHT22;15006;48.584;9.186;2022-07-23T01:10:00;18.50;72.50
27567;DHT22;15006;48.584;9.186;2022-07-23T01:12:27;18.40;72.40
27567;DHT22;15006;48.584;9.186;2022-07-23T01:14:58;18.40;72.80
27567;DHT22;15006;48.584;9.186;2022-07-23T01:17:26;18.40;73.50
27567;DHT22;15006;48.584;9.186;2022-07-23T01:19:52;18.40;73.30
27567;DHT22;15006;48.584;9.186;2022-07-23T01:22:19;18.40;73.40
27567;DHT22;15006;48.584;9.186;2022-07-23T01:24:46;18.40;74.40
27567;DHT22;15006;48.584;9.186;2022-07-23T01:27:12;18.40;74.10
27567;DHT22;15006;48.584;9.186;2022-07-23T01:29:39;18.40;74.20
27567;DHT22;15006;48.584;9.186;2022-07-23T01:32:06;18.40;75.40
27567;DHT22;15006;48.584;9.186;2022-07-23T01:34:32;18.40;75.70
27567;DHT22;15006;48.584;9.186;2022-07-23T01:36:57;18.40;76.20
27567;DHT22;15006;48.584;9.186;2022-07-23T01:39:23;18.40;76.50
27567;DHT22;15006;48.584;9.186;2022-07-23T01:41:49;18.40;77.00
27567;DHT22;15006;48.584;9.186;2022-07-23T01:44:15;18.30;76.90
27567;DHT22;15006;48.584;9.186;2022-07-23T01:46:42;18.30;77.40
27567;DHT22;15006;48.584;9.186;2022-07-23T01:49:08;18.30;77.90
27567;DHT22;15006;48.584;9.186;2022-07-23T01:51:34;18.20;77.50
27567;DHT22;15006;48.584;9.186;2022-07-23T01:54:00;18.20;78.10
27567;DHT22;15006;48.584;9.186;2022-07-23T01:56:26;18.20;78.50
27567;DHT22;15006;48.584;9.186;2022-07-23T01:58:52;18.10;79.00
27567;DHT22;15006;48.584;9.186;2022-07-23T02:01:18;18.10;79.50
27567;DHT22;15006;48.584;9.186;2022-07-23T02:03:44;18.10;79.70
27567;DHT22;15006;48.584;9.186;2022-07-23T02:06:10;18.10;79.00
27567;DHT22;15006;48.584;9.186;2022-07-23T02:08:36;18.10;79.10
27567;DHT22;15006;48.584;9.186;2022-07-23T02:11:02;18.00;79.70
27567;DHT22;15006;48.584;9.186;2022-07-23T02:13:28;18.10;80.90
27567;DHT22;15006;48.584;9.186;2022-07-23T02:15:54;18.00;80.30
27567;DHT22;15006;48.584;9.186;2022-07-23T02:18:20;18.00;80.20
27567;DHT22;15006;48.584;9.186;2022-07-23T02:20:47;18.00;80.60
27567;DHT22;15006;48.584;9.186;2022-07-23T02:23:13;18.00;80.30
27567;DHT22;15006;48.584;9.186;2022-07-23T02:25:38;17.90;79.70
27567;DHT22;15006;48.584;9.186;2022-07-23T02:28:04;17.90;78.90
27567;DHT22;15006;48.584;9.186;2022-07-23T02:30:31;17.90;78.80
27567;DHT22;15006;48.584;9.186;2022-07-23T02:32:57;17.80;78.20
27567;DHT22;15006;48.584;9.186;2022-07-23T02:35:23;17.70;77.80
27567;DHT22;15006;48.584;9.186;2022-07-23T02:37:49;17.70;77.50
27567;DHT22;15006;48.584;9.186;2022-07-23T02:40:15;17.70;77.60
27567;DHT22;15006;48.584;9.186;2022-07-23T02:42:41;17.70;77.20
27567;DHT22;15006;48.584;9.186;2022-07-23T02:45:07;17.70;77.20
27567;DHT22;15006;48.584;9.186;2022-07-23T02:47:33;17.70;77.20
27567;DHT22;15006;48.584;9.186;2022-07-23T02:49:59;17.60;76.90
27567;DHT22;15006;48.584;9.186;2022-07-23T02:52:26;17.60;76.90
27567;DHT22;15006;48.584;9.186;2022-07-23T02:54:51;17.60;76.90
27567;DHT22;15006;48.584;9.186;2022-07-23T02:57:17;17.60;76.90
27567;DHT22;15006;48.584;9.186;2022-07-23T02:59:43;17.60;77.60
27567;DHT22;15006;48.584;9.186;2022-07-23T03:02:09;17.60;78.30
27567;DHT22;15006;48.584;9.186;2022-07-23T03:04:35;17.60;78.00
27567;DHT22;15006;48.584;9.186;2022-07-23T03:07:01;17.60;78.30
27567;DHT22;15006;48.584;9.186;2022-07-23T03:09:27;17.60;78.20
27567;DHT22;15006;48.584;9.186;2022-07-23T03:11:53;17.60;78.20
27567;DHT22;15006;48.584;9.186;2022-07-23T03:14:19;17.70;78.50
27567;DHT22;15006;48.584;9.186;2022-07-23T03:16:45;17.70;78.90
27567;DHT22;15006;48.584;9.186;2022-07-23T03:19:11;17.70;79.10
27567;DHT22;15006;48.584;9.186;2022-07-23T03:21:37;17.70;79.60
27567;DHT22;15006;48.584;9.186;2022-07-23T03:24:07;17.70;79.60
27567;DHT22;15006;48.584;9.186;2022-07-23T03:26:35;17.70;79.60
27567;DHT22;15006;48.584;9.186;2022-07-23T03:29:01;17.70;79.80
27567;DHT22;15006;48.584;9.186;2022-07-23T03:31:29;17.70;80.00
27567;DHT22;15006;48.584;9.186;2022-07-23T03:33:57;17.70;80.30
27567;DHT22;15006;48.584;9.186;2022-07-23T03:36:23;17.70;79.90
27567;DHT22;15006;48.584;9.186;2022-07-23T03:38:49;17.60;79.80
27567;DHT22;15006;48.584;9.186;2022-07-23T03:41:16;17.60;80.00
27567;DHT22;15006;48.584;9.186;2022-07-23T03:43:43;17.60;80.30
27567;DHT22;15006;48.584;9.186;2022-07-23T03:46:09;17.50;80.90
27567;DHT22;15006;48.584;9.186;2022-07-23T03:48:35;17.40;81.00
27567;DHT22;15006;48.584;9.186;2022-07-23T03:51:02;17.40;80.80
27567;DHT22;15006;48.584;9.186;2022-07-23T03:53:28;17.30;80.70
27567;DHT22;15006;48.584;9.186;2022-07-23T03:55:54;17.20;80.70
27567;DHT22;15006;48.584;9.186;2022-07-23T03:58:20;17.20;81.10
27567;DHT22;15006;48.584;9.186;2022-07-23T04:00:46;17.10;81.60
27567;DHT22;15006;48.584;9.186;2022-07-23T04:03:12;17.00;81.60
27567;DHT22;15006;48.584;9.186;2022-07-23T04:05:38;16.90;82.00
27567;DHT22;15006;48.584;9.186;2022-07-23T04:08:04;16.90;82.70
27567;DHT22;15006;48.584;9.186;2022-07-23T04:10:30;16.80;83.70
27567;DHT22;15006;48.584;9.186;2022-07-23T04:12:56;16.80;84.70
27567;DHT22;15006;48.584;9.186;2022-07-23T04:15:22;16.80;85.10
27567;DHT22;15006;48.584;9.186;2022-07-23T04:17:48;16.80;85.50
27567;DHT22;15006;48.584;9.186;2022-07-23T04:20:14;16.80;86.00
27567;DHT22;15006;48.584;9.186;2022-07-23T04:22:39;16.80;86.10
27567;DHT22;15006;48.584;9.186;2022-07-23T04:25:06;16.70;86.20
27567;DHT22;15006;48.584;9.186;2022-07-23T04:27:32;16.80;86.10
27567;DHT22;15006;48.584;9.186;2022-07-23T04:29:59;16.70;86.50
27567;DHT22;15006;48.584;9.186;2022-07-23T04:32:26;16.70;87.00
27567;DHT22;15006;48.584;9.186;2022-07-23T04:34:52;16.70;87.20
27567;DHT22;15006;48.584;9.186;2022-07-23T04:37:18;16.70;87.80
27567;DHT22;15006;48.584;9.186;2022-07-23T04:39:44;16.70;88.20
27567;DHT22;15006;48.584;9.186;2022-07-23T04:42:10;16.80;88.60
27567;DHT22;15006;48.584;9.186;2022-07-23T04:44:36;16.80;89.20
27567;DHT22;15006;48.584;9.186;2022-07-23T04:47:02;16.80;89.60
27567;DHT22;15006;48.584;9.186;2022-07-23T04:49:28;16.80;89.70
27567;DHT22;15006;48.584;9.186;2022-07-23T04:51:54;16.90;89.70
27567;DHT22;15006;48.584;9.186;2022-07-23T04:54:20;16.90;90.00
27567;DHT22;15006;48.584;9.186;2022-07-23T04:56:45;16.90;90.40
27567;DHT22;15006;48.584;9.186;2022-07-23T04:59:11;17.00;90.70
27567;DHT22;15006;48.584;9.186;2022-07-23T05:01:37;17.10;91.20
27567;DHT22;15006;48.584;9.186;2022-07-23T05:04:03;17.20;91.20
27567;DHT22;15006;48.584;9.186;2022-07-23T05:06:29;17.30;90.90
27567;DHT22;15006;48.584;9.186;2022-07-23T05:08:55;17.40;90.90
27567;DHT22;15006;48.584;9.186;2022-07-23T05:11:21;17.50;90.90
27567;DHT22;15006;48.584;9.186;2022-07-23T05:13:47;17.60;90.60
27567;DHT22;15006;48.584;9.186;2022-07-23T05:16:13;17.70;89.90
27567;DHT22;15006;48.584;9.186;2022-07-23T05:18:39;17.70;89.60
27567;DHT22;15006;48.584;9.186;2022-07-23T05:21:05;17.70;89.00
27567;DHT22;15006;48.584;9.186;2022-07-23T05:23:31;17.80;88.40
27567;DHT22;15006;48.584;9.186;2022-07-23T05:25:57;17.80;88.40
27567;DHT22;15006;48.584;9.186;2022-07-23T05:28:23;17.90;88.40
27567;DHT22;15006;48.584;9.186;2022-07-23T05:30:49;17.90;88.50
27567;DHT22;15006;48.584;9.186;2022-07-23T05:33:17;18.00;88.50
27567;DHT22;15006;48.584;9.186;2022-07-23T05:35:44;18.10;87.60
27567;DHT22;15006;48.584;9.186;2022-07-23T05:38:10;18.10;86.50
27567;DHT22;15006;48.584;9.186;2022-07-23T05:40:36;18.10;86.10
27567;DHT22;15006;48.584;9.186;2022-07-23T05:43:02;18.20;85.60
27567;DHT22;15006;48.584;9.186;2022-07-23T05:45:28;18.20;85.90
27567;DHT22;15006;48.584;9.186;2022-07-23T05:47:54;18.20;86.00
27567;DHT22;15006;48.584;9.186;2022-07-23T05:50:20;18.20;85.70
27567;DHT22;15006;48.584;9.186;2022-07-23T05:52:46;18.20;85.70
27567;DHT22;15006;48.584;9.186;2022-07-23T05:55:13;18.20;85.60
27567;DHT22;15006;48.584;9.186;2022-07-23T05:57:40;18.20;85.90
27567;DHT22;15006;48.584;9.186;2022-07-23T06:00:07;18.20;86.50
27567;DHT22;15006;48.584;9.186;2022-07-23T06:02:34;18.20;86.40
27567;DHT22;15006;48.584;9.186;2022-07-23T06:05:00;18.30;86.20
27567;DHT22;15006;48.584;9.186;2022-07-23T06:07:27;18.30;86.80
27567;DHT22;15006;48.584;9.186;2022-07-23T06:09:53;18.30;87.20
27567;DHT22;15006;48.584;9.186;2022-07-23T06:12:19;18.40;87.20
27567;DHT22;15006;48.584;9.186;2022-07-23T06:14:45;18.40;86.80
27567;DHT22;15006;48.584;9.186;2022-07-23T06:17:11;18.50;86.10
27567;DHT22;15006;48.584;9.186;2022-07-23T06:19:37;18.60;86.40
27567;DHT22;15006;48.584;9.186;2022-07-23T06:22:03;18.70;86.00
27567;DHT22;15006;48.584;9.186;2022-07-23T06:24:29;18.80;85.90
27567;DHT22;15006;48.584;9.186;2022-07-23T06:26:55;19.00;85.00
27567;DHT22;15006;48.584;9.186;2022-07-23T06:29:21;19.10;84.20
27567;DHT22;15006;48.584;9.186;2022-07-23T06:31:46;19.30;83.90
27567;DHT22;15006;48.584;9.186;2022-07-23T06:34:12;19.40;82.90
27567;DHT22;15006;48.584;9.186;2022-07-23T06:36:38;19.60;82.10
27567;DHT22;15006;48.584;9.186;2022-07-23T06:39:05;19.80;81.60
27567;DHT22;15006;48.584;9.186;2022-07-23T06:41:31;19.90;81.80
27567;DHT22;15006;48.584;9.186;2022-07-23T06:43:57;20.00;80.90
27567;DHT22;15006;48.584;9.186;2022-07-23T06:46:23;20.10;80.00
27567;DHT22;15006;48.584;9.186;2022-07-23T06:48:49;20.30;79.50
27567;DHT22;15006;48.584;9.186;2022-07-23T06:51:14;20.40;78.80
27567;DHT22;15006;48.584;9.186;2022-07-23T06:53:40;20.50;78.50
27567;DHT22;15006;48.584;9.186;2022-07-23T06:56:06;20.60;78.10
27567;DHT22;15006;48.584;9.186;2022-07-23T06:58:32;20.70;78.10
27567;DHT22;15006;48.584;9.186;2022-07-23T07:00:58;20.70;76.90
27567;DHT22;15006;48.584;9.186;2022-07-23T07:03:24;20.80;76.70
27567;DHT22;15006;48.584;9.186;2022-07-23T07:05:50;20.90;77.50
27567;DHT22;15006;48.584;9.186;2022-07-23T07:08:17;21.00;77.10
27567;DHT22;15006;48.584;9.186;2022-07-23T07:10:43;21.10;77.10
27567;DHT22;15006;48.584;9.186;2022-07-23T07:13:09;21.20;76.50
27567;DHT22;15006;48.584;9.186;2022-07-23T07:15:35;21.20;76.10
27567;DHT22;15006;48.584;9.186;2022-07-23T07:18:01;21.40;73.60
27567;DHT22;15006;48.584;9.186;2022-07-23T07:20:27;21.40;73.30
27567;DHT22;15006;48.584;9.186;2022-07-23T07:22:53;21.50;72.40
27567;DHT22;15006;48.584;9.186;2022-07-23T07:25:19;21.50;72.40
27567;DHT22;15006;48.584;9.186;2022-07-23T07:27:45;21.50;71.50
27567;DHT22;15006;48.584;9.186;2022-07-23T07:30:12;21.50;71.80
27567;DHT22;15006;48.584;9.186;2022-07-23T07:32:38;21.50;72.20
27567;DHT22;15006;48.584;9.186;2022-07-23T07:35:05;21.60;71.60
27567;DHT22;15006;48.584;9.186;2022-07-23T07:37:32;21.80;71.00
27567;DHT22;15006;48.584;9.186;2022-07-23T07:39:58;21.90;70.50
27567;DHT22;15006;48.584;9.186;2022-07-23T07:42:24;22.10;69.80
27567;DHT22;15006;48.584;9.186;2022-07-23T07:44:50;22.30;68.90
27567;DHT22;15006;48.584;9.186;2022-07-23T07:47:16;22.40;68.40
27567;DHT22;15006;48.584;9.186;2022-07-23T07:49:42;22.60;68.00
27567;DHT22;15006;48.584;9.186;2022-07-23T07:52:09;22.70;66.50
27567;DHT22;15006;48.584;9.186;2022-07-23T07:54:36;22.70;65.90
27567;DHT22;15006;48.584;9.186;2022-07-23T07:57:02;22.80;65.20
27567;DHT22;15006;48.584;9.186;2022-07-23T07:59:28;22.80;64.10
27567;DHT22;15006;48.584;9.186;2022-07-23T08:01:55;22.90;63.10
27567;DHT22;15006;48.584;9.186;2022-07-23T08:04:21;22.90;63.00
27567;DHT22;15006;48.584;9.186;2022-07-23T08:06:47;23.00;63.00
27567;DHT22;15006;48.584;9.186;2022-07-23T08:09:13;23.10;62.90
27567;DHT22;15006;48.584;9.186;2022-07-23T08:11:39;23.30;62.60
27567;DHT22;15006;48.584;9.186;2022-07-23T08:14:04;23.40;62.00
27567;DHT22;15006;48.584;9.186;2022-07-23T08:16:31;23.50;61.90
27567;DHT22;15006;48.584;9.186;2022-07-23T08:18:57;23.80;61.80
27567;DHT22;15006;48.584;9.186;2022-07-23T08:21:23;24.00;61.60
27567;DHT22;15006;48.584;9.186;2022-07-23T08:23:49;24.20;60.10
27567;DHT22;15006;48.584;9.186;2022-07-23T08:26:15;24.50;60.10
27567;DHT22;15006;48.584;9.186;2022-07-23T08:28:41;24.80;59.20
27567;DHT22;15006;48.584;9.186;2022-07-23T08:31:07;25.10;58.90
27567;DHT22;15006;48.584;9.186;2022-07-23T08:33:33;25.50;57.10
27567;DHT22;15006;48.584;9.186;2022-07-23T08:36:00;25.80;56.10
27567;DHT22;15006;48.584;9.186;2022-07-23T08:38:28;26.00;55.10
27567;DHT22;15006;48.584;9.186;2022-07-23T08:40:55;26.20;54.50
27567;DHT22;15006;48.584;9.186;2022-07-23T08:43:31;26.40;54.50
27567;DHT22;15006;48.584;9.186;2022-07-23T08:45:59;26.60;53.40
27567;DHT22;15006;48.584;9.186;2022-07-23T08:48:28;26.60;52.70
27567;DHT22;15006;48.584;9.186;2022-07-23T08:50:57;26.70;52.20
27567;DHT22;15006;48.584;9.186;2022-07-23T08:53:26;26.90;51.90
27567;DHT22;15006;48.584;9.186;2022-07-23T08:55:55;26.90;52.60
27567;DHT22;15006;48.584;9.186;2022-07-23T08:58:23;26.90;51.20
27567;DHT22;15006;48.584;9.186;2022-07-23T09:00:50;26.90;50.80
27567;DHT22;15006;48.584;9.186;2022-07-23T09:03:22;26.90;50.70
27567;DHT22;15006;48.584;9.186;2022-07-23T09:05:51;26.80;49.80
27567;DHT22;15006;48.584;9.186;2022-07-23T09:08:19;26.80;50.00
27567;DHT22;15006;48.584;9.186;2022-07-23T09:10:50;26.80;50.00
27567;DHT22;15006;48.584;9.186;2022-07-23T09:18:43;26.90;49.50
27567;DHT22;15006;48.584;9.186;2022-07-23T09:23:44;27.30;49.60
27567;DHT22;15006;48.584;9.186;2022-07-23T09:26:45;27.60;49.80
27567;DHT22;15006;48.584;9.186;2022-07-23T09:29:24;27.80;49.50
27567;DHT22;15006;48.584;9.186;2022-07-23T09:32:00;27.90;47.90
27567;DHT22;15006;48.584;9.186;2022-07-23T09:34:30;28.00;47.20
27567;DHT22;15006;48.584;9.186;2022-07-23T09:37:15;28.10;48.00
27567;DHT22;15006;48.584;9.186;2022-07-23T09:39:46;28.20;46.50
27567;DHT22;15006;48.584;9.186;2022-07-23T09:42:22;28.30;47.70
27567;DHT22;15006;48.584;9.186;2022-07-23T09:44:55;28.40;46.80
27567;DHT22;15006;48.584;9.186;2022-07-23T09:47:24;28.50;47.70
27567;DHT22;15006;48.584;9.186;2022-07-23T09:52:28;28.80;47.00
27567;DHT22;15006;48.584;9.186;2022-07-23T09:55:04;29.10;45.70
27567;DHT22;15006;48.584;9.186;2022-07-23T09:57:32;29.30;45.30
27567;DHT22;15006;48.584;9.186;2022-07-23T10:00:03;29.50;46.20
27567;DHT22;15006;48.584;9.186;2022-07-23T10:02:32;29.70;45.00
27567;DHT22;15006;48.584;9.186;2022-07-23T10:04:59;29.90;44.30
27567;DHT22;15006;48.584;9.186;2022-07-23T10:07:27;30.10;44.40
27567;DHT22;15006;48.584;9.186;2022-07-23T10:09:55;30.30;44.10
27567;DHT22;15006;48.584;9.186;2022-07-23T10:12:22;30.40;44.30
27567;DHT22;15006;48.584;9.186;2022-07-23T10:15:05;30.60;43.80
27567;DHT22;15006;48.584;9.186;2022-07-23T10:17:32;30.90;43.30
27567;DHT22;15006;48.584;9.186;2022-07-23T10:19:58;31.10;43.00
27567;DHT22;15006;48.584;9.186;2022-07-23T10:22:30;31.30;43.20
27567;DHT22;15006;48.584;9.186;2022-07-23T10:33:56;31.70;40.40
27567;DHT22;15006;48.584;9.186;2022-07-23T10:36:38;31.70;42.00
27567;DHT22;15006;48.584;9.186;2022-07-23T10:39:24;31.70;40.20
27567;DHT22;15006;48.584;9.186;2022-07-23T10:41:52;31.60;39.40
27567;DHT22;15006;48.584;9.186;2022-07-23T10:44:20;31.50;40.10
27567;DHT22;15006;48.584;9.186;2022-07-23T10:47:07;31.50;40.20
27567;DHT22;15006;48.584;9.186;2022-07-23T10:49:39;31.40;40.40
27567;DHT22;15006;48.584;9.186;2022-07-23T10:54:53;31.50;40.30
27567;DHT22;15006;48.584;9.186;2022-07-23T10:57:25;31.60;39.90
27567;DHT22;15006;48.584;9.186;2022-07-23T11:02:42;31.30;38.90
27567;DHT22;15006;48.584;9.186;2022-07-23T11:05:25;31.10;39.50
27567;DHT22;15006;48.584;9.186;2022-07-23T11:08:14;30.80;39.60
27567;DHT22;15006;48.584;9.186;2022-07-23T11:24:09;29.70;42.00
27567;DHT22;15006;48.584;9.186;2022-07-23T11:26:58;29.70;42.20
27567;DHT22;15006;48.584;9.186;2022-07-23T11:34:50;30.40;41.80
27567;DHT22;15006;48.584;9.186;2022-07-23T11:37:36;30.60;41.20
27567;DHT22;15006;48.584;9.186;2022-07-23T11:42:35;30.70;38.80
27567;DHT22;15006;48.584;9.186;2022-07-23T11:45:05;30.70;39.90
27567;DHT22;15006;48.584;9.186;2022-07-23T11:47:33;30.70;39.90
27567;DHT22;15006;48.584;9.186;2022-07-23T11:50:00;30.60;40.40
27567;DHT22;15006;48.584;9.186;2022-07-23T11:52:29;30.50;39.10
27567;DHT22;15006;48.584;9.186;2022-07-23T11:54:58;30.50;39.20
27567;DHT22;15006;48.584;9.186;2022-07-23T11:57:30;30.40;39.80
27567;DHT22;15006;48.584;9.186;2022-07-23T12:02:46;30.50;40.40
27567;DHT22;15006;48.584;9.186;2022-07-23T12:05:29;30.70;40.30
27567;DHT22;15006;48.584;9.186;2022-07-23T12:07:57;30.90;39.50
27567;DHT22;15006;48.584;9.186;2022-07-23T12:10:34;31.10;39.30
27567;DHT22;15006;48.584;9.186;2022-07-23T12:13:04;31.30;39.00
27567;DHT22;15006;48.584;9.186;2022-07-23T12:15:34;31.40;38.90
27567;DHT22;15006;48.584;9.186;2022-07-23T12:18:05;31.60;38.50
27567;DHT22;15006;48.584;9.186;2022-07-23T12:20:41;31.80;38.40
27567;DHT22;15006;48.584;9.186;2022-07-23T12:23:10;32.10;38.40
27567;DHT22;15006;48.584;9.186;2022-07-23T12:25:39;32.40;37.90
27567;DHT22;15006;48.584;9.186;2022-07-23T12:31:00;32.80;37.50
27567;DHT22;15006;48.584;9.186;2022-07-23T12:33:34;33.00;37.00
27567;DHT22;15006;48.584;9.186;2022-07-23T12:36:04;33.20;36.40
27567;DHT22;15006;48.584;9.186;2022-07-23T12:38:40;33.40;34.90
27567;DHT22;15006;48.584;9.186;2022-07-23T12:41:07;33.40;35.00
27567;DHT22;15006;48.584;9.186;2022-07-23T12:43:37;33.50;35.80
27567;DHT22;15006;48.584;9.186;2022-07-23T12:46:08;33.60;35.60
27567;DHT22;15006;48.584;9.186;2022-07-23T12:48:52;33.70;35.70
27567;DHT22;15006;48.584;9.186;2022-07-23T12:51:25;33.80;34.20
27567;DHT22;15006;48.584;9.186;2022-07-23T12:54:04;33.80;32.90
27567;DHT22;15006;48.584;9.186;2022-07-23T12:56:37;33.70;32.50
27567;DHT22;15006;48.584;9.186;2022-07-23T12:59:08;33.50;32.00
27567;DHT22;15006;48.584;9.186;2022-07-23T13:01:42;33.20;32.60
27567;DHT22;15006;48.584;9.186;2022-07-23T13:04:24;32.90;33.40
27567;DHT22;15006;48.584;9.186;2022-07-23T13:09:28;32.20;33.10
27567;DHT22;15006;48.584;9.186;2022-07-23T13:11:56;31.80;33.90
27567;DHT22;15006;48.584;9.186;2022-07-23T13:14:23;31.40;34.40
27567;DHT22;15006;48.584;9.186;2022-07-23T13:16:51;31.00;34.60
27567;DHT22;15006;48.584;9.186;2022-07-23T13:19:18;30.70;35.00
27567;DHT22;15006;48.584;9.186;2022-07-23T13:21:45;30.30;35.70
27567;DHT22;15006;48.584;9.186;2022-07-23T13:24:12;30.00;36.30
27567;DHT22;15006;48.584;9.186;2022-07-23T13:26:38;29.60;37.00
27567;DHT22;15006;48.584;9.186;2022-07-23T13:29:05;29.30;37.60
27567;DHT22;15006;48.584;9.186;2022-07-23T13:31:32;29.10;37.90
27567;DHT22;15006;48.584;9.186;2022-07-23T13:33:58;29.00;39.60
27567;DHT22;15006;48.584;9.186;2022-07-23T13:36:24;29.00;40.40
27567;DHT22;15006;48.584;9.186;2022-07-23T13:38:50;29.10;40.10
27567;DHT22;15006;48.584;9.186;2022-07-23T13:41:17;29.30;40.10
27567;DHT22;15006;48.584;9.186;2022-07-23T13:43:43;29.50;39.60
27567;DHT22;15006;48.584;9.186;2022-07-23T13:46:09;29.60;39.00
27567;DHT22;15006;48.584;9.186;2022-07-23T13:48:35;29.60;38.60
27567;DHT22;15006;48.584;9.186;2022-07-23T13:51:01;29.50;38.00
27567;DHT22;15006;48.584;9.186;2022-07-23T13:53:27;29.40;38.10
27567;DHT22;15006;48.584;9.186;2022-07-23T13:55:53;29.30;38.70
27567;DHT22;15006;48.584;9.186;2022-07-23T13:58:20;29.00;38.00
27567;DHT22;15006;48.584;9.186;2022-07-23T14:00:50;28.80;38.60
27567;DHT22;15006;48.584;9.186;2022-07-23T14:03:17;28.60;38.60
27567;DHT22;15006;48.584;9.186;2022-07-23T14:05:44;28.40;39.40
27567;DHT22;15006;48.584;9.186;2022-07-23T14:08:10;28.20;40.30
27567;DHT22;15006;48.584;9.186;2022-07-23T14:10:36;28.10;41.30
27567;DHT22;15006;48.584;9.186;2022-07-23T14:13:02;28.10;41.40
27567;DHT22;15006;48.584;9.186;2022-07-23T14:15:30;28.10;41.50
27567;DHT22;15006;48.584;9.186;2022-07-23T14:17:57;28.10;42.30
27567;DHT22;15006;48.584;9.186;2022-07-23T14:20:23;28.00;42.40
27567;DHT22;15006;48.584;9.186;2022-07-23T14:22:50;28.00;42.00
27567;DHT22;15006;48.584;9.186;2022-07-23T14:25:17;28.00;42.50
27567;DHT22;15006;48.584;9.186;2022-07-23T14:27:43;28.00;42.50
27567;DHT22;15006;48.584;9.186;2022-07-23T14:30:12;28.00;42.20
27567;DHT22;15006;48.584;9.186;2022-07-23T14:32:38;28.10;42.60
27567;DHT22;15006;48.584;9.186;2022-07-23T14:35:05;28.30;42.40
27567;DHT22;15006;48.584;9.186;2022-07-23T14:37:32;28.40;42.40
27567;DHT22;15006;48.584;9.186;2022-07-23T14:39:58;28.70;41.90
27567;DHT22;15006;48.584;9.186;2022-07-23T14:42:24;28.90;40.80
27567;DHT22;15006;48.584;9.186;2022-07-23T14:44:50;29.20;41.20
27567;DHT22;15006;48.584;9.186;2022-07-23T14:47:16;29.40;41.00
27567;DHT22;15006;48.584;9.186;2022-07-23T14:49:43;29.70;40.20
27567;DHT22;15006;48.584;9.186;2022-07-23T14:52:09;30.00;40.60
27567;DHT22;15006;48.584;9.186;2022-07-23T14:54:35;30.30;39.90
27567;DHT22;15006;48.584;9.186;2022-07-23T14:57:01;30.60;39.20
27567;DHT22;15006;48.584;9.186;2022-07-23T14:59:28;31.00;38.20
27567;DHT22;15006;48.584;9.186;2022-07-23T15:01:56;31.30;38.00
27567;DHT22;15006;48.584;9.186;2022-07-23T15:04:23;31.40;37.70
27567;DHT22;15006;48.584;9.186;2022-07-23T15:06:49;31.60;37.40
27567;DHT22;15006;48.584;9.186;2022-07-23T15:09:15;31.80;37.30
27567;DHT22;15006;48.584;9.186;2022-07-23T15:11:41;31.90;37.00
27567;DHT22;15006;48.584;9.186;2022-07-23T15:14:08;32.10;36.20
27567;DHT22;15006;48.584;9.186;2022-07-23T15:16:34;32.10;35.40
27567;DHT22;15006;48.584;9.186;2022-07-23T15:19:02;32.20;35.00
27567;DHT22;15006;48.584;9.186;2022-07-23T15:21:29;32.40;34.90
27567;DHT22;15006;48.584;9.186;2022-07-23T15:23:56;32.50;35.30
27567;DHT22;15006;48.584;9.186;2022-07-23T15:26:28;32.70;34.80
27567;DHT22;15006;48.584;9.186;2022-07-23T15:28:55;32.90;34.30
27567;DHT22;15006;48.584;9.186;2022-07-23T15:31:22;33.10;34.20
27567;DHT22;15006;48.584;9.186;2022-07-23T15:33:48;33.20;33.60
27567;DHT22;15006;48.584;9.186;2022-07-23T15:36:17;33.20;33.10
27567;DHT22;15006;48.584;9.186;2022-07-23T15:38:45;33.20;34.00
27567;DHT22;15006;48.584;9.186;2022-07-23T15:41:11;33.30;33.70
27567;DHT22;15006;48.584;9.186;2022-07-23T15:43:37;33.40;33.10
27567;DHT22;15006;48.584;9.186;2022-07-23T15:46:04;33.60;32.40
27567;DHT22;15006;48.584;9.186;2022-07-23T15:48:32;33.60;32.20
27567;DHT22;15006;48.584;9.186;2022-07-23T15:51:00;33.70;32.50
27567;DHT22;15006;48.584;9.186;2022-07-23T15:53:26;33.70;32.60
27567;DHT22;15006;48.584;9.186;2022-07-23T15:55:52;33.60;31.90
27567;DHT22;15006;48.584;9.186;2022-07-23T15:58:18;33.30;31.40
27567;DHT22;15006;48.584;9.186;2022-07-23T16:00:44;33.00;31.60
27567;DHT22;15006;48.584;9.186;2022-07-23T16:03:10;32.70;32.40
27567;DHT22;15006;48.584;9.186;2022-07-23T16:05:36;32.30;32.10
27567;DHT22;15006;48.584;9.186;2022-07-23T16:08:03;31.90;32.40
27567;DHT22;15006;48.584;9.186;2022-07-23T16:10:30;31.50;32.70
27567;DHT22;15006;48.584;9.186;2022-07-23T16:12:56;31.00;33.60
27567;DHT22;15006;48.584;9.186;2022-07-23T16:15:22;30.60;34.40
27567;DHT22;15006;48.584;9.186;2022-07-23T16:17:48;30.10;34.10
27567;DHT22;15006;48.584;9.186;2022-07-23T16:20:14;29.80;34.90
27567;DHT22;15006;48.584;9.186;2022-07-23T16:22:40;29.50;35.00
27567;DHT22;15006;48.584;9.186;2022-07-23T16:25:07;29.30;36.00
27567;DHT22;15006;48.584;9.186;2022-07-23T16:27:36;29.00;36.40